Search for airport 
image banner adimage banner adimage banner ad
image banner ad

7N8 - Butter Valley Golf Port

Located in Bally, United States

ICAO - 7N8, IATA -

Data provided by Airmate  

General information

Coordinates: N40°23'51" W75°33'47"
Elevation is 500 feet MSL.
Magnetic variation is -11° East
View others Airports in Pennsylvania

Operational data

Special qualification required
Current time UTC:
Current local time:
Weather at : KUKT - Quakertown ( 16 km )
METAR: KUKT 182255Z AUTO 20005KT 10SM CLR 25/06 A3025 RMK A01
View NOTAMs / SUP AIP / TFR affecting this airport [VIEW]
Communications frequencies: [VIEW]

Runways:

RWY identifierQFULength (ft)Width (ft)SurfaceLDA (ft)
16242085OTHER
34242085OTHER

Airport contact information

Address: Bally United States

Satellite view of 7N8